Time;durP1;ratioP1;P1;durP2;ratioP2;P2;SDS_P1;SDS_P2;PMS_P1;PMS_P2;Temp;Humidity;BMP_temperature;BMP_pressure;BME280_temperature;BME280_humidity;BME280_pressure;Samples;Min_cycle;Max_cycle;Signal;HPM_P1;HPM_P2
2022/06/14 00:03:09;;;;;;;;;;;;;;;13.06;67.22;102371.25;5044598;28;19948;-32
2022/06/14 00:05:34;;;;;;;;;;;;;;;13.04;67.46;102373.28;5038550;28;19925;-32
2022/06/14 00:07:59;;;;;;;;;;;;;;;12.95;67.63;102375.97;5045943;28;19985;-32
2022/06/14 00:10:25;;;;;;;;;;;;;;;12.92;67.72;102381.66;5052268;28;19909;-32
2022/06/14 00:12:50;;;;;;;;;;;;;;;12.90;67.15;102377.41;5040913;28;19925;-31
2022/06/14 00:15:16;;;;;;;;;;;;;;;12.79;68.14;102381.22;5033536;28;19926;-32
2022/06/14 00:17:41;;;;;;;;;;;;;;;12.73;69.13;102376.47;5034615;28;19964;-32
2022/06/14 00:20:07;;;;;;;;;;;;;;;12.71;69.50;102379.31;5039556;28;19976;-31
2022/06/14 00:22:32;;;;;;;;;;;;;;;12.71;69.66;102376.63;5044595;28;19921;-32
2022/06/14 00:24:57;;;;;;;;;;;;;;;12.66;69.84;102380.81;5045564;28;19917;-32
2022/06/14 00:27:23;;;;;;;;;;;;;;;12.65;70.55;102385.38;5051710;28;19909;-33
2022/06/14 00:29:48;;;;;;;;;;;;;;;12.63;70.84;102386.53;5042443;28;19971;-32
2022/06/14 00:32:13;;;;;;;;;;;;;;;12.58;71.31;102391.56;5034520;28;19909;-32
2022/06/14 00:34:39;;;;;;;;;;;;;;;12.51;71.52;102385.94;5036371;28;19960;-31
2022/06/14 00:37:04;;;;;;;;;;;;;;;12.48;72.02;102389.81;5046511;28;19921;-32
2022/06/14 00:39:29;;;;;;;;;;;;;;;12.48;72.38;102381.72;5056260;28;19985;-33
2022/06/14 00:41:55;;;;;;;;;;;;;;;12.52;72.62;102385.78;5041839;28;19910;-31
2022/06/14 00:44:24;;;;;;;;;;;;;;;12.52;72.45;102380.38;5048040;28;19920;-32
2022/06/14 00:46:52;;;;;;;;;;;;;;;12.52;72.59;102379.53;5052389;28;19921;-31
2022/06/14 00:49:19;;;;;;;;;;;;;;;12.47;72.10;102377.28;5055258;28;19928;-32
2022/06/14 00:51:50;;;;;;;;;;;;;;;12.41;72.29;102377.94;5051902;28;19922;-33
2022/06/14 00:54:20;;;;;;;;;;;;;;;12.35;72.36;102373.16;5051211;28;19980;-32
2022/06/14 00:57:08;;;;;;;;;;;;;;;12.36;72.66;102368.63;5037837;28;19916;-33
2022/06/14 00:59:34;;;;;;;;;;;;;;;12.32;72.35;102376.16;5036651;28;19925;-33
2022/06/14 01:02:03;;;;;;;;;;;;;;;12.28;72.78;102370.22;5052799;28;19979;-31
2022/06/14 01:04:29;;;;;;;;;;;;;;;12.26;72.90;102364.13;5047067;28;19968;-32
2022/06/14 01:06:56;;;;;;;;;;;;;;;12.27;73.26;102367.69;5056028;28;19928;-32
2022/06/14 01:09:22;;;;;;;;;;;;;;;12.26;73.28;102363.28;5040081;28;19978;-33
2022/06/14 01:11:48;;;;;;;;;;;;;;;12.25;73.43;102365.16;5052687;28;19909;-33
2022/06/14 01:14:15;;;;;;;;;;;;;;;12.22;73.36;102367.31;5037952;28;19947;-33
2022/06/14 01:16:40;;;;;;;;;;;;;;;12.19;73.55;102356.81;5040917;28;19984;-33
2022/06/14 01:19:07;;;;;;;;;;;;;;;12.19;73.88;102351.41;5036999;28;19918;-32
2022/06/14 01:21:32;;;;;;;;;;;;;;;12.23;74.35;102358.22;5046545;28;19917;-32
2022/06/14 01:23:57;;;;;;;;;;;;;;;12.16;74.17;102352.56;5042063;28;19914;-32
2022/06/14 01:26:23;;;;;;;;;;;;;;;12.12;74.34;102351.19;5069364;28;19968;-32
2022/06/14 01:28:49;;;;;;;;;;;;;;;12.09;74.61;102346.13;5047817;28;19905;-29
2022/06/14 01:31:14;;;;;;;;;;;;;;;12.04;74.66;102343.88;5053609;28;19921;-31
2022/06/14 01:33:41;;;;;;;;;;;;;;;11.98;75.13;102344.50;5050184;28;19917;-31
2022/06/14 01:36:08;;;;;;;;;;;;;;;11.97;75.74;102340.09;5055057;28;19963;-29
2022/06/14 01:38:33;;;;;;;;;;;;;;;11.95;75.50;102331.28;5051139;28;19925;-32
2022/06/14 01:40:58;;;;;;;;;;;;;;;11.94;75.78;102329.63;5053857;28;19924;-32
2022/06/14 01:43:42;;;;;;;;;;;;;;;11.92;75.67;102323.53;5046865;28;19921;-31
2022/06/14 01:46:24;;;;;;;;;;;;;;;11.87;75.94;102331.22;5053585;28;19980;-32
2022/06/14 01:51:59;;;;;;;;;;;;;;;11.82;76.66;102328.09;5043501;28;19924;-32
2022/06/14 01:54:27;;;;;;;;;;;;;;;11.81;76.68;102323.72;5043276;28;20307;-32
2022/06/14 01:57:31;;;;;;;;;;;;;;;11.77;76.60;102323.19;5046191;28;19944;-32
2022/06/14 01:59:56;;;;;;;;;;;;;;;11.76;77.05;102320.63;5053667;28;19960;-32
2022/06/14 02:02:25;;;;;;;;;;;;;;;11.76;77.06;102318.78;5052450;28;19936;-33
2022/06/14 02:04:56;;;;;;;;;;;;;;;11.75;77.27;102313.56;5035212;28;19939;-32
2022/06/14 02:07:25;;;;;;;;;;;;;;;11.73;77.52;102315.56;5045487;28;19918;-31
2022/06/14 02:09:56;;;;;;;;;;;;;;;11.72;77.63;102316.56;5055140;28;19956;-32
2022/06/14 02:12:29;;;;;;;;;;;;;;;11.72;77.87;102324.66;5053419;28;19931;-33
2022/06/14 02:15:02;;;;;;;;;;;;;;;11.69;77.80;102323.13;5054382;28;19921;-31
2022/06/14 02:17:30;;;;;;;;;;;;;;;11.70;78.07;102318.56;5050296;28;19953;-31
2022/06/14 02:19:59;;;;;;;;;;;;;;;11.68;78.36;102320.56;5054821;28;19921;-31
2022/06/14 02:22:32;;;;;;;;;;;;;;;11.69;78.30;102314.16;5062966;28;19976;-33
2022/06/14 02:25:01;;;;;;;;;;;;;;;11.71;78.08;102325.66;5034911;28;19957;-31
2022/06/14 02:27:26;;;;;;;;;;;;;;;11.71;78.10;102320.25;5050884;28;19995;-32
2022/06/14 02:30:11;;;;;;;;;;;;;;;11.70;78.20;102318.56;5048892;28;19932;-30
2022/06/14 02:35:20;;;;;;;;;;;;;;;11.68;78.64;102315.16;5072485;28;19925;-79
2022/06/14 02:37:45;;;;;;;;;;;;;;;11.64;78.49;102317.34;5073938;28;20070;-79
2022/06/14 02:40:16;;;;;;;;;;;;;;;11.64;78.70;102323.56;5074083;28;19925;-79
2022/06/14 02:42:45;;;;;;;;;;;;;;;11.59;78.33;102317.78;5072651;28;19939;-79
2022/06/14 02:45:29;;;;;;;;;;;;;;;11.54;78.24;102317.38;5055654;28;19925;-80
2022/06/14 02:47:56;;;;;;;;;;;;;;;11.50;78.41;102315.97;5070178;28;19927;-79
2022/06/14 02:50:33;;;;;;;;;;;;;;;11.45;78.96;102317.44;5062399;28;19920;-79
2022/06/14 02:53:04;;;;;;;;;;;;;;;11.40;79.75;102312.50;5068322;28;19921;-79
2022/06/14 02:55:49;;;;;;;;;;;;;;;11.40;80.03;102307.09;5070628;28;20014;-80
2022/06/14 02:58:18;;;;;;;;;;;;;;;11.42;80.15;102310.50;5067067;28;19920;-80
2022/06/14 03:00:57;;;;;;;;;;;;;;;11.40;79.91;102304.41;5068755;28;19927;-80
2022/06/14 03:03:24;;;;;;;;;;;;;;;11.40;79.99;102310.69;5073032;28;20047;-79
2022/06/14 03:05:50;;;;;;;;;;;;;;;11.39;79.96;102308.13;5063765;28;20074;-79
2022/06/14 03:08:23;;;;;;;;;;;;;;;11.38;79.99;102315.38;5055503;28;20408;-79
2022/06/14 03:10:56;;;;;;;;;;;;;;;11.37;80.17;102307.41;5059822;28;20277;-79
2022/06/14 03:13:44;;;;;;;;;;;;;;;11.39;80.54;102308.97;5057377;28;19917;-80
2022/06/14 03:16:19;;;;;;;;;;;;;;;11.37;80.46;102305.59;5060092;28;19921;-79
2022/06/14 03:18:51;;;;;;;;;;;;;;;11.35;79.94;102298.66;5071496;28;19917;-80
2022/06/14 03:21:19;;;;;;;;;;;;;;;11.33;79.86;102311.44;5052305;28;19921;-79
2022/06/14 03:23:50;;;;;;;;;;;;;;;11.31;79.95;102303.47;5052773;28;19931;-80
2022/06/14 03:26:23;;;;;;;;;;;;;;;11.32;80.51;102310.59;5070868;28;19986;-80
2022/06/14 03:28:56;;;;;;;;;;;;;;;11.31;80.58;102305.34;5054529;28;20277;-79
2022/06/14 03:31:40;;;;;;;;;;;;;;;11.34;80.70;102305.03;5070369;28;19920;-79
2022/06/14 03:34:13;;;;;;;;;;;;;;;11.35;80.41;102299.50;5071536;28;19920;-80
2022/06/14 03:36:39;;;;;;;;;;;;;;;11.34;80.08;102296.94;5070572;28;19952;-80
2022/06/14 03:39:11;;;;;;;;;;;;;;;11.32;79.98;102313.28;5070515;28;19959;-80
2022/06/14 03:41:37;;;;;;;;;;;;;;;11.33;80.31;102314.13;5069989;28;19921;-78
2022/06/14 03:44:03;;;;;;;;;;;;;;;11.32;80.18;102320.50;5070483;28;19942;-79
2022/06/14 03:46:30;;;;;;;;;;;;;;;11.27;80.25;102314.72;5071641;28;20011;-78
2022/06/14 03:49:04;;;;;;;;;;;;;;;11.27;80.68;102312.88;5066228;28;20004;-79
2022/06/14 03:51:48;;;;;;;;;;;;;;;11.26;80.67;102307.63;5069481;28;19924;-79
2022/06/14 03:54:13;;;;;;;;;;;;;;;11.18;80.58;102309.22;5069666;28;19935;-79
2022/06/14 03:56:59;;;;;;;;;;;;;;;11.15;80.71;102311.38;5070344;28;19988;-80
2022/06/14 03:59:31;;;;;;;;;;;;;;;11.15;81.00;102314.91;5069324;28;19917;-79
2022/06/14 04:02:00;;;;;;;;;;;;;;;11.15;81.27;102314.06;5061888;28;19952;-80
2022/06/14 04:04:31;;;;;;;;;;;;;;;11.18;81.36;102311.91;5065444;28;19928;-79
2022/06/14 04:06:56;;;;;;;;;;;;;;;11.21;81.52;102317.00;5071072;28;20012;-79
2022/06/14 04:09:27;;;;;;;;;;;;;;;11.26;81.61;102313.03;5064478;28;20278;-79
2022/06/14 04:11:58;;;;;;;;;;;;;;;11.26;81.14;102307.63;5068989;28;19920;-79
2022/06/14 04:14:42;;;;;;;;;;;;;;;11.35;81.38;102314.81;5054931;28;19921;-78
2022/06/14 04:17:15;;;;;;;;;;;;;;;11.45;80.86;102315.59;5061059;28;19928;-79
2022/06/14 04:19:53;;;;;;;;;;;;;;;11.52;80.44;102316.69;5069124;28;20296;-78
2022/06/14 04:22:30;;;;;;;;;;;;;;;11.61;80.48;102314.91;5062576;28;20292;-78
2022/06/14 04:25:00;;;;;;;;;;;;;;;11.65;79.82;102316.31;5073114;28;20299;-78
2022/06/14 04:27:34;;;;;;;;;;;;;;;11.69;80.53;102315.03;5058160;28;19921;-78
2022/06/14 04:29:59;;;;;;;;;;;;;;;11.78;80.60;102310.56;5052792;28;20308;-78
2022/06/14 04:32:36;;;;;;;;;;;;;;;11.86;80.39;102307.97;5067620;28;19920;-78
2022/06/14 04:35:03;;;;;;;;;;;;;;;11.93;80.12;102311.75;5054377;28;19940;-78
2022/06/14 04:37:33;;;;;;;;;;;;;;;12.03;80.02;102309.81;5070362;28;19988;-78
2022/06/14 04:40:00;;;;;;;;;;;;;;;12.12;79.32;102307.19;5069973;28;19984;-78
2022/06/14 04:42:26;;;;;;;;;;;;;;;12.16;78.88;102305.84;5062494;28;19920;-78
2022/06/14 04:44:57;;;;;;;;;;;;;;;12.22;78.85;102314.19;5071956;28;19924;-79
2022/06/14 04:47:23;;;;;;;;;;;;;;;12.33;79.08;102314.94;5052744;28;19928;-78
2022/06/14 04:49:53;;;;;;;;;;;;;;;12.52;78.83;102314.72;5054161;28;19936;-79
2022/06/14 04:52:23;;;;;;;;;;;;;;;12.70;78.66;102317.38;5070173;28;19928;-79
2022/06/14 04:55:08;;;;;;;;;;;;;;;12.86;78.03;102317.44;5065171;28;19921;-79
2022/06/14 04:57:48;;;;;;;;;;;;;;;13.04;77.48;102324.66;5071114;28;20418;-77
2022/06/14 05:00:20;;;;;;;;;;;;;;;13.23;77.48;102318.97;5070538;28;19921;-77
2022/06/14 05:02:48;;;;;;;;;;;;;;;13.37;77.29;102318.34;5070349;28;19920;-77
2022/06/14 05:05:19;;;;;;;;;;;;;;;13.43;76.37;102324.13;5071146;28;19924;-77
2022/06/14 05:07:48;;;;;;;;;;;;;;;13.60;76.36;102315.06;5072203;28;20256;-77
2022/06/14 05:10:15;;;;;;;;;;;;;;;13.76;75.86;102317.78;5063600;28;19920;-79
2022/06/14 05:12:47;;;;;;;;;;;;;;;13.96;74.88;102321.03;5066417;28;19984;-78
2022/06/14 05:15:15;;;;;;;;;;;;;;;14.14;73.77;102318.16;5067722;28;19928;-79
2022/06/14 05:17:45;;;;;;;;;;;;;;;14.22;72.37;102318.16;5063711;28;19982;-79
2022/06/14 05:20:17;;;;;;;;;;;;;;;14.28;71.16;102314.75;5064333;28;19920;-80
2022/06/14 05:22:58;;;;;;;;;;;;;;;14.51;70.87;102316.78;5077462;28;19952;-79
2022/06/14 05:25:23;;;;;;;;;;;;;;;14.52;70.21;102315.75;5077771;28;19942;-80
2022/06/14 05:27:59;;;;;;;;;;;;;;;14.45;69.54;102312.03;5083415;28;19928;-80
2022/06/14 05:30:27;;;;;;;;;;;;;;;14.53;69.92;102311.19;5073430;28;19923;-80
2022/06/14 05:32:52;;;;;;;;;;;;;;;14.78;69.80;102312.00;5069633;28;19916;-79
2022/06/14 05:35:30;;;;;;;;;;;;;;;14.97;69.53;102322.44;5065154;28;20404;-77
2022/06/14 05:38:04;;;;;;;;;;;;;;;15.03;66.95;102319.00;5063537;28;19925;-78
2022/06/14 05:40:44;;;;;;;;;;;;;;;15.09;65.92;102317.50;5068347;28;20344;-79
2022/06/14 05:43:10;;;;;;;;;;;;;;;15.26;65.89;102321.81;5070570;28;19923;-79
2022/06/14 05:45:36;;;;;;;;;;;;;;;15.43;64.26;102314.44;5076927;28;19921;-78
2022/06/14 05:48:05;;;;;;;;;;;;;;;15.62;62.47;102313.13;5079764;28;19924;-79
2022/06/14 05:50:31;;;;;;;;;;;;;;;15.76;62.16;102309.66;5075532;28;20423;-78
2022/06/14 05:52:59;;;;;;;;;;;;;;;15.88;60.95;102312.81;5058768;28;19916;-80
2022/06/14 05:55:38;;;;;;;;;;;;;;;16.06;59.76;102319.78;5078537;28;19923;-80
2022/06/14 05:58:06;;;;;;;;;;;;;;;16.20;59.42;102322.56;5077635;28;19917;-78
2022/06/14 06:00:32;;;;;;;;;;;;;;;16.51;59.42;102323.47;5059494;28;19920;-79
2022/06/14 06:03:18;;;;;;;;;;;;;;;16.27;57.38;102314.50;5067664;28;19912;-79
2022/06/14 06:06:13;;;;;;;;;;;;;;;16.10;57.83;102323.84;5082443;28;20003;-79
2022/06/14 06:08:40;;;;;;;;;;;;;;;16.41;57.33;102330.03;5063530;28;19917;-79
2022/06/14 06:11:07;;;;;;;;;;;;;;;16.33;57.15;102326.56;5070878;28;19920;-81
2022/06/14 06:13:34;;;;;;;;;;;;;;;16.41;57.38;102330.03;5060238;28;19917;-79
2022/06/14 06:16:02;;;;;;;;;;;;;;;16.67;57.02;102329.59;5062228;28;20375;-79
2022/06/14 06:18:31;;;;;;;;;;;;;;;16.69;56.62;102332.09;5075576;28;19966;-78
2022/06/14 06:21:06;;;;;;;;;;;;;;;16.74;56.46;102335.13;5073794;28;19920;-77
2022/06/14 06:23:37;;;;;;;;;;;;;;;16.57;55.78;102339.06;5077347;28;19963;-79
2022/06/14 06:26:02;;;;;;;;;;;;;;;16.48;55.25;102340.97;5079482;28;20314;-80
2022/06/14 06:28:29;;;;;;;;;;;;;;;16.42;54.83;102339.00;5081489;28;19916;-78
2022/06/14 06:31:01;;;;;;;;;;;;;;;16.25;54.59;102341.03;5066169;28;20341;-79
2022/06/14 06:33:27;;;;;;;;;;;;;;;16.25;53.99;102343.75;5082715;28;19968;-79
2022/06/14 06:36:09;;;;;;;;;;;;;;;16.19;53.60;102339.03;5075678;28;20720;-80
2022/06/14 06:38:55;;;;;;;;;;;;;;;16.30;53.87;102344.06;5077609;28;20368;-80
2022/06/14 06:44:37;;;;;;;;;;;;;;;16.48;53.57;102342.88;5044685;28;19924;-80
2022/06/14 06:47:05;;;;;;;;;;;;;;;16.59;52.72;102337.00;5058761;28;20379;-78
2022/06/14 06:49:42;;;;;;;;;;;;;;;16.80;52.82;102341.75;5057632;28;20350;-78
2022/06/14 06:52:09;;;;;;;;;;;;;;;17.03;51.59;102349.78;5076441;28;19925;-78
2022/06/14 06:54:44;;;;;;;;;;;;;;;17.32;52.44;102349.78;5076294;28;19946;-78
2022/06/14 06:57:10;;;;;;;;;;;;;;;17.45;51.31;102350.97;5077504;28;19920;-79
2022/06/14 06:59:39;;;;;;;;;;;;;;;17.53;50.08;102348.97;5077316;28;19924;-79
2022/06/14 07:02:09;;;;;;;;;;;;;;;17.59;48.85;102343.78;5076104;28;19927;-78
2022/06/14 07:07:20;;;;;;;;;;;;;;;17.30;48.63;102351.84;5071594;28;20127;-79
2022/06/14 07:09:47;;;;;;;;;;;;;;;17.29;48.00;102350.13;5071098;28;19923;-79
2022/06/14 07:12:14;;;;;;;;;;;;;;;17.52;48.21;102349.19;5066095;28;19985;-76
2022/06/14 07:14:48;;;;;;;;;;;;;;;17.54;46.88;102347.13;5062361;28;19921;-79
2022/06/14 07:17:17;;;;;;;;;;;;;;;17.51;46.83;102348.34;5064019;28;19917;-79
2022/06/14 07:19:44;;;;;;;;;;;;;;;17.93;45.87;102348.59;5058031;28;19917;-77
2022/06/14 07:22:28;;;;;;;;;;;;;;;18.54;46.20;102348.94;5065777;28;19927;-78
2022/06/14 07:25:04;;;;;;;;;;;;;;;18.99;45.33;102352.22;5068812;28;19952;-78
2022/06/14 07:27:48;;;;;;;;;;;;;;;19.02;44.18;102351.81;5062187;28;19925;-79
2022/06/14 07:30:21;;;;;;;;;;;;;;;19.02;43.01;102351.81;5066428;28;19916;-79
2022/06/14 07:32:47;;;;;;;;;;;;;;;19.59;42.42;102354.34;5065826;28;19924;-79
2022/06/14 07:35:13;;;;;;;;;;;;;;;19.76;43.19;102352.13;5058511;28;19921;-78
2022/06/14 07:37:43;;;;;;;;;;;;;;;19.97;42.37;102357.44;5057399;28;19939;-80
2022/06/14 07:40:08;;;;;;;;;;;;;;;19.95;42.46;102357.63;5064607;28;19958;-78
2022/06/14 07:42:49;;;;;;;;;;;;;;;20.25;41.08;102351.78;5073698;28;20575;-78
2022/06/14 07:45:16;;;;;;;;;;;;;;;20.52;40.87;102351.78;5073130;28;19936;-79
2022/06/14 07:48:00;;;;;;;;;;;;;;;20.39;41.80;102347.16;5052983;28;19917;-79
2022/06/14 07:50:33;;;;;;;;;;;;;;;19.90;43.51;102346.47;5064836;28;20406;-78
2022/06/14 07:53:01;;;;;;;;;;;;;;;19.90;42.76;102349.22;5059379;28;19916;-78
2022/06/14 07:55:27;;;;;;;;;;;;;;;19.62;43.16;102353.97;5054443;28;19916;-78
2022/06/14 07:57:55;;;;;;;;;;;;;;;19.69;44.01;102357.56;5067340;28;19924;-78
2022/06/14 08:03:09;;;;;;;;;;;;;;;20.53;42.97;102348.00;5071803;28;19927;-79
2022/06/14 08:05:35;;;;;;;;;;;;;;;20.67;41.59;102346.97;5077390;28;20225;-79
2022/06/14 08:08:03;;;;;;;;;;;;;;;20.82;41.07;102346.72;5068886;28;19916;-79
2022/06/14 08:10:28;;;;;;;;;;;;;;;21.05;40.01;102346.25;5068753;28;20011;-79
2022/06/14 08:12:56;;;;;;;;;;;;;;;21.79;39.86;102341.28;5069588;28;19955;-78
2022/06/14 08:15:21;;;;;;;;;;;;;;;21.91;39.37;102337.63;5071922;28;19974;-80
2022/06/14 08:17:47;;;;;;;;;;;;;;;22.13;38.88;102338.09;5072682;28;20225;-79
2022/06/14 08:20:16;;;;;;;;;;;;;;;22.98;37.00;102334.81;5072546;28;20422;-80
2022/06/14 08:22:42;;;;;;;;;;;;;;;23.74;37.02;102335.34;5072108;28;19924;-79
2022/06/14 08:25:15;;;;;;;;;;;;;;;23.99;34.76;102342.59;5068330;28;19917;-79
2022/06/14 08:28:02;;;;;;;;;;;;;;;24.77;33.39;102338.72;5057859;28;19916;-78
2022/06/14 08:30:30;;;;;;;;;;;;;;;24.45;34.21;102332.75;5070852;28;19916;-80
2022/06/14 08:32:55;;;;;;;;;;;;;;;24.62;33.16;102341.97;5069470;28;19920;-80
2022/06/14 08:35:27;;;;;;;;;;;;;;;24.86;33.38;102328.19;5071768;28;19928;-78
2022/06/14 08:38:12;;;;;;;;;;;;;;;25.31;33.33;102322.00;5053286;28;19921;-79
2022/06/14 08:40:55;;;;;;;;;;;;;;;24.79;33.82;102317.28;5051017;28;20011;-80
2022/06/14 08:43:23;;;;;;;;;;;;;;;25.14;32.97;102319.13;5067633;28;19921;-77
2022/06/14 08:46:07;;;;;;;;;;;;;;;24.68;34.30;102321.75;5069371;28;19920;-77
2022/06/14 08:48:42;;;;;;;;;;;;;;;23.27;34.76;102331.53;5072575;28;20011;-77
2022/06/14 08:51:31;;;;;;;;;;;;;;;22.87;36.12;102313.56;5070602;28;20007;-77
2022/06/14 08:53:59;;;;;;;;;;;;;;;22.58;38.29;102318.72;5051181;28;20002;-78
2022/06/14 08:56:30;;;;;;;;;;;;;;;23.18;36.58;102322.75;5055195;28;19937;-79
2022/06/14 08:58:58;;;;;;;;;;;;;;;23.07;36.14;102320.78;5056663;28;19916;-79
2022/06/14 09:01:32;;;;;;;;;;;;;;;23.66;35.25;102319.16;5056795;28;20308;-78
2022/06/14 09:04:06;;;;;;;;;;;;;;;25.30;32.50;102304.63;5061080;28;19927;-78
2022/06/14 09:06:54;;;;;;;;;;;;;;;27.04;29.18;102307.50;5064059;28;19928;-80
2022/06/14 09:09:38;;;;;;;;;;;;;;;27.00;29.30;102311.03;5061792;28;19928;-80
2022/06/14 09:12:03;;;;;;;;;;;;;;;26.93;29.92;102309.25;5063182;28;19924;-80
2022/06/14 09:14:31;;;;;;;;;;;;;;;26.79;29.52;102305.22;5060625;28;19920;-79
2022/06/14 09:17:00;;;;;;;;;;;;;;;26.71;29.98;102305.66;5068389;28;20279;-77
2022/06/14 09:19:27;;;;;;;;;;;;;;;26.84;28.71;102301.69;5045273;28;19928;-79
2022/06/14 09:22:11;;;;;;;;;;;;;;;26.75;28.60;102306.81;5066602;28;19928;-80
2022/06/14 09:24:36;;;;;;;;;;;;;;;27.13;28.11;102299.56;5062986;28;19927;-79
2022/06/14 09:27:01;;;;;;;;;;;;;;;26.65;28.75;102303.94;5064175;28;20350;-78
2022/06/14 09:29:29;;;;;;;;;;;;;;;27.17;28.79;102300.75;5071929;28;19924;-80
2022/06/14 09:32:03;;;;;;;;;;;;;;;26.85;27.99;102301.44;5072973;28;20003;-79
2022/06/14 09:34:32;;;;;;;;;;;;;;;25.05;30.55;102291.16;5064375;28;19921;-79
2022/06/14 09:37:11;;;;;;;;;;;;;;;25.05;31.23;102299.41;5064868;28;20295;-79
2022/06/14 09:39:42;;;;;;;;;;;;;;;24.92;32.19;102291.41;5064141;28;20464;-78
2022/06/14 09:42:13;;;;;;;;;;;;;;;26.06;30.38;102291.41;5068920;28;20258;-78
2022/06/14 09:44:57;;;;;;;;;;;;;;;27.12;28.67;102289.59;5072712;28;19924;-79
2022/06/14 09:47:41;;;;;;;;;;;;;;;28.83;25.83;102298.03;5069807;28;19960;-79
2022/06/14 09:50:25;;;;;;;;;;;;;;;28.19;26.55;102285.16;5065675;28;19925;-77
2022/06/14 09:52:53;;;;;;;;;;;;;;;27.10;28.12;102297.34;5081350;28;19917;-78
2022/06/14 09:55:39;;;;;;;;;;;;;;;26.37;28.39;102283.63;5078502;28;19921;-78
2022/06/14 09:58:07;;;;;;;;;;;;;;;26.78;29.56;102284.22;5070319;28;20388;-77
2022/06/14 10:00:36;;;;;;;;;;;;;;;26.71;28.59;102272.53;5066470;28;19917;-79
2022/06/14 10:03:04;;;;;;;;;;;;;;;27.28;27.59;102282.38;5078397;28;20356;-79
2022/06/14 10:05:36;;;;;;;;;;;;;;;27.17;29.51;102281.41;5074767;28;19927;-79
2022/06/14 10:08:04;;;;;;;;;;;;;;;26.78;30.16;102275.94;5062353;28;19917;-78
2022/06/14 10:10:50;;;;;;;;;;;;;;;26.87;30.49;102276.31;5072816;28;19931;-78
2022/06/14 10:13:33;;;;;;;;;;;;;;;26.90;30.86;102270.28;5071446;28;19920;-78
2022/06/14 10:16:17;;;;;;;;;;;;;;;27.61;30.36;102270.25;5070795;28;19920;-78
2022/06/14 10:19:01;;;;;;;;;;;;;;;28.03;28.91;102272.31;5070373;28;19920;-77
2022/06/14 10:21:41;;;;;;;;;;;;;;;27.59;29.54;102269.69;5062540;28;20250;-78
2022/06/14 10:24:11;;;;;;;;;;;;;;;26.35;31.08;102263.69;5060809;28;20004;-78
2022/06/14 10:29:46;;;;;;;;;;;;;;;24.93;34.39;102257.28;5064343;28;20395;-80
2022/06/14 10:32:30;;;;;;;;;;;;;;;24.58;35.24;102255.44;5060736;28;19921;-78
2022/06/14 10:35:05;;;;;;;;;;;;;;;24.35;35.18;102263.69;5059378;28;19958;-77
2022/06/14 10:37:43;;;;;;;;;;;;;;;24.43;35.35;102253.16;5059641;28;19950;-77
2022/06/14 10:40:09;;;;;;;;;;;;;;;24.39;35.37;102253.88;5063309;28;19917;-77
2022/06/14 10:42:37;;;;;;;;;;;;;;;24.20;35.69;102251.25;5062704;28;20213;-78
2022/06/14 10:45:25;;;;;;;;;;;;;;;24.09;35.40;102249.31;5066439;28;19920;-77
2022/06/14 10:47:53;;;;;;;;;;;;;;;23.81;36.15;102250.84;5057204;28;19924;-77
2022/06/14 10:50:37;;;;;;;;;;;;;;;23.64;36.71;102260.81;5063937;28;20023;-77
2022/06/14 10:53:24;;;;;;;;;;;;;;;23.60;36.73;102248.63;5059668;28;19967;-78
2022/06/14 10:55:55;;;;;;;;;;;;;;;23.42;36.70;102253.13;5068974;28;19980;-78
2022/06/14 10:58:39;;;;;;;;;;;;;;;23.55;37.19;102248.50;5064187;28;19921;-78
2022/06/14 11:01:07;;;;;;;;;;;;;;;23.72;35.81;102246.75;5068540;28;19917;-77
2022/06/14 11:03:32;;;;;;;;;;;;;;;23.76;36.26;102245.22;5061140;28;19917;-78
2022/06/14 11:06:15;;;;;;;;;;;;;;;23.60;36.74;102251.38;5060801;28;19959;-78
2022/06/14 11:08:59;;;;;;;;;;;;;;;23.43;36.61;102237.47;5067860;28;19924;-79
2022/06/14 11:11:30;;;;;;;;;;;;;;;23.23;37.05;102240.50;5059002;28;19932;-77
2022/06/14 11:14:13;;;;;;;;;;;;;;;23.09;36.90;102242.59;5056696;28;20239;-77
2022/06/14 11:16:44;;;;;;;;;;;;;;;22.95;37.79;102233.66;5065319;28;20262;-77
2022/06/14 11:19:23;;;;;;;;;;;;;;;23.24;38.37;102233.94;5055106;28;20007;-79
2022/06/14 11:21:50;;;;;;;;;;;;;;;23.38;37.33;102240.06;5060171;28;19969;-78
2022/06/14 11:24:28;;;;;;;;;;;;;;;23.97;36.09;102232.00;5068228;28;19931;-78
2022/06/14 11:27:23;;;;;;;;;;;;;;;24.64;33.75;102234.38;5062854;28;19924;-78
2022/06/14 11:29:54;;;;;;;;;;;;;;;24.36;34.73;102230.44;5030676;28;20380;-77
2022/06/14 11:32:29;;;;;;;;;;;;;;;24.71;34.88;102233.16;5060049;28;19925;-76
2022/06/14 11:35:03;;;;;;;;;;;;;;;25.29;34.30;102230.47;5058249;28;20439;-77
2022/06/14 11:37:31;;;;;;;;;;;;;;;25.35;33.80;102226.72;5067738;28;19921;-76
2022/06/14 11:40:15;;;;;;;;;;;;;;;25.37;34.57;102222.63;5070266;28;19971;-78
2022/06/14 11:42:41;;;;;;;;;;;;;;;25.91;32.78;102224.97;5071993;28;20035;-78
2022/06/14 11:45:07;;;;;;;;;;;;;;;26.69;31.82;102227.75;5071283;28;20015;-77
2022/06/14 11:47:52;;;;;;;;;;;;;;;27.07;30.29;102218.53;5072212;28;19965;-77
2022/06/14 11:50:32;;;;;;;;;;;;;;;26.91;30.54;102214.78;5061979;28;20283;-78
2022/06/14 11:53:16;;;;;;;;;;;;;;;26.89;31.48;102208.66;5057077;28;19924;-77
2022/06/14 11:55:43;;;;;;;;;;;;;;;26.80;30.91;102212.97;5059461;28;20364;-77
2022/06/14 11:58:11;;;;;;;;;;;;;;;26.44;31.98;102215.25;5051714;28;20110;-78
2022/06/14 12:00:45;;;;;;;;;;;;;;;25.91;32.49;102213.94;5067116;28;19920;-79
2022/06/14 12:03:13;;;;;;;;;;;;;;;25.50;33.63;102215.97;5069963;28;19920;-78
2022/06/14 12:05:39;;;;;;;;;;;;;;;25.35;33.80;102212.94;5065068;28;20447;-78
2022/06/14 12:08:19;;;;;;;;;;;;;;;25.40;33.26;102207.53;5074422;28;19920;-77
2022/06/14 12:11:10;;;;;;;;;;;;;;;25.27;34.79;102205.06;5067446;28;19939;-78
2022/06/14 12:13:38;;;;;;;;;;;;;;;26.21;32.83;102201.69;5063791;28;19927;-79
2022/06/14 12:16:07;;;;;;;;;;;;;;;26.43;32.12;102209.97;5061379;28;20012;-77
2022/06/14 12:18:34;;;;;;;;;;;;;;;26.06;32.14;102210.56;5055644;28;20408;-77
2022/06/14 12:21:12;;;;;;;;;;;;;;;25.49;32.79;102205.19;5067041;28;19920;-78
2022/06/14 12:23:39;;;;;;;;;;;;;;;24.88;34.48;102194.69;5073845;28;19924;-77
2022/06/14 12:29:00;;;;;;;;;;;;;;;24.35;34.46;102189.41;5083557;28;20069;-79
2022/06/14 12:31:25;;;;;;;;;;;;;;;24.18;35.80;102183.81;5064295;28;20370;-77
2022/06/14 12:33:51;;;;;;;;;;;;;;;24.23;35.48;102187.50;5074917;28;19920;-78
2022/06/14 12:36:25;;;;;;;;;;;;;;;24.27;36.51;102183.19;5062591;28;19939;-77
2022/06/14 12:38:52;;;;;;;;;;;;;;;24.52;35.34;102184.84;5056430;28;19917;-78
2022/06/14 12:41:20;;;;;;;;;;;;;;;24.87;35.08;102179.22;5076371;28;20007;-77
2022/06/14 12:43:49;;;;;;;;;;;;;;;25.45;34.17;102184.72;5072289;28;19917;-79
2022/06/14 12:46:15;;;;;;;;;;;;;;;26.33;33.22;102182.25;5061283;28;19943;-79
2022/06/14 12:48:57;;;;;;;;;;;;;;;26.64;31.76;102177.97;5059554;28;19932;-78
2022/06/14 12:51:49;;;;;;;;;;;;;;;26.76;31.56;102169.56;5065737;28;19920;-80
2022/06/14 12:54:19;;;;;;;;;;;;;;;26.39;32.38;102173.78;5078600;28;19920;-80
2022/06/14 12:56:59;;;;;;;;;;;;;;;25.85;32.86;102181.81;5075233;28;19921;-81
2022/06/14 12:59:37;;;;;;;;;;;;;;;25.10;33.98;102170.03;5076985;28;19920;-82
2022/06/14 13:02:02;;;;;;;;;;;;;;;24.79;34.85;102163.09;5079067;28;19940;-79
2022/06/14 13:04:28;;;;;;;;;;;;;;;24.64;35.80;102165.53;5079830;28;19927;-79
2022/06/14 13:07:05;;;;;;;;;;;;;;;25.31;34.59;102159.41;5079073;28;19924;-79
2022/06/14 13:09:38;;;;;;;;;;;;;;;25.45;34.46;102160.75;5070541;28;20252;-78
2022/06/14 13:12:24;;;;;;;;;;;;;;;25.34;34.32;102159.75;5068496;28;20003;-80
2022/06/14 13:15:19;;;;;;;;;;;;;;;25.11;35.46;102160.69;5076744;28;19959;-78
2022/06/14 13:17:44;;;;;;;;;;;;;;;24.95;35.20;102167.00;5068654;28;19920;-78
2022/06/14 13:20:16;;;;;;;;;;;;;;;24.66;36.43;102163.41;5078602;28;19969;-79
2022/06/14 13:22:57;;;;;;;;;;;;;;;24.03;36.51;102170.53;5073165;28;19927;-78